sensor_id;sensor_type;location;lat;lon;timestamp;P1;durP1;ratioP1;P2;durP2;ratioP2
25263;SDS011;13211;51.796;5.808;2023-08-12T00:00:59;20.73;;;12.05;;
25263;SDS011;13211;51.796;5.808;2023-08-12T00:03:27;24.63;;;12.52;;
25263;SDS011;13211;51.796;5.808;2023-08-12T00:05:55;25.98;;;11.75;;
25263;SDS011;13211;51.796;5.808;2023-08-12T00:08:23;23.83;;;12.73;;
25263;SDS011;13211;51.796;5.808;2023-08-12T00:10:51;25.40;;;13.07;;
25263;SDS011;13211;51.796;5.808;2023-08-12T00:13:19;23.27;;;14.10;;
25263;SDS011;13211;51.796;5.808;2023-08-12T00:15:47;27.25;;;14.00;;
25263;SDS011;13211;51.796;5.808;2023-08-12T00:18:15;24.90;;;14.10;;
25263;SDS011;13211;51.796;5.808;2023-08-12T00:20:44;23.67;;;13.00;;
25263;SDS011;13211;51.796;5.808;2023-08-12T00:23:13;24.17;;;13.43;;
25263;SDS011;13211;51.796;5.808;2023-08-12T00:25:40;21.70;;;13.38;;
25263;SDS011;13211;51.796;5.808;2023-08-12T00:28:15;20.67;;;13.32;;
25263;SDS011;13211;51.796;5.808;2023-08-12T00:30:51;27.52;;;14.35;;
25263;SDS011;13211;51.796;5.808;2023-08-12T00:33:20;24.63;;;13.23;;
25263;SDS011;13211;51.796;5.808;2023-08-12T00:35:47;21.77;;;14.35;;
25263;SDS011;13211;51.796;5.808;2023-08-12T00:38:15;23.45;;;13.70;;
25263;SDS011;13211;51.796;5.808;2023-08-12T00:40:46;21.65;;;13.00;;
25263;SDS011;13211;51.796;5.808;2023-08-12T00:43:15;32.78;;;14.52;;
25263;SDS011;13211;51.796;5.808;2023-08-12T00:45:43;30.65;;;15.68;;
25263;SDS011;13211;51.796;5.808;2023-08-12T00:48:11;25.70;;;14.10;;
25263;SDS011;13211;51.796;5.808;2023-08-12T00:50:40;27.15;;;14.57;;
25263;SDS011;13211;51.796;5.808;2023-08-12T00:53:08;20.38;;;14.00;;
25263;SDS011;13211;51.796;5.808;2023-08-12T00:55:36;26.48;;;15.88;;
25263;SDS011;13211;51.796;5.808;2023-08-12T00:58:04;27.38;;;15.27;;
25263;SDS011;13211;51.796;5.808;2023-08-12T01:00:32;29.80;;;15.23;;
25263;SDS011;13211;51.796;5.808;2023-08-12T01:03:00;28.35;;;15.63;;
25263;SDS011;13211;51.796;5.808;2023-08-12T01:05:29;27.30;;;15.98;;
25263;SDS011;13211;51.796;5.808;2023-08-12T01:07:57;29.80;;;16.42;;
25263;SDS011;13211;51.796;5.808;2023-08-12T01:10:33;27.02;;;15.30;;
25263;SDS011;13211;51.796;5.808;2023-08-12T01:15:29;29.52;;;15.05;;
25263;SDS011;13211;51.796;5.808;2023-08-12T01:17:57;26.95;;;16.30;;
25263;SDS011;13211;51.796;5.808;2023-08-12T01:20:27;25.80;;;14.88;;
25263;SDS011;13211;51.796;5.808;2023-08-12T01:22:58;32.78;;;17.17;;
25263;SDS011;13211;51.796;5.808;2023-08-12T01:25:27;26.83;;;15.52;;
25263;SDS011;13211;51.796;5.808;2023-08-12T01:27:54;32.08;;;16.70;;
25263;SDS011;13211;51.796;5.808;2023-08-12T01:30:23;26.02;;;16.55;;
25263;SDS011;13211;51.796;5.808;2023-08-12T01:32:56;25.13;;;16.00;;
25263;SDS011;13211;51.796;5.808;2023-08-12T01:35:33;27.20;;;15.48;;
25263;SDS011;13211;51.796;5.808;2023-08-12T01:38:02;30.58;;;16.80;;
25263;SDS011;13211;51.796;5.808;2023-08-12T01:40:31;27.45;;;16.70;;
25263;SDS011;13211;51.796;5.808;2023-08-12T01:42:59;27.67;;;17.98;;
25263;SDS011;13211;51.796;5.808;2023-08-12T01:45:30;27.58;;;16.60;;
25263;SDS011;13211;51.796;5.808;2023-08-12T01:47:58;29.98;;;17.55;;
25263;SDS011;13211;51.796;5.808;2023-08-12T01:50:26;27.38;;;16.70;;
25263;SDS011;13211;51.796;5.808;2023-08-12T01:52:53;28.40;;;16.25;;
25263;SDS011;13211;51.796;5.808;2023-08-12T01:55:21;31.85;;;17.08;;
25263;SDS011;13211;51.796;5.808;2023-08-12T01:57:48;30.15;;;17.50;;
25263;SDS011;13211;51.796;5.808;2023-08-12T02:00:16;30.00;;;18.08;;
25263;SDS011;13211;51.796;5.808;2023-08-12T02:02:44;30.60;;;17.58;;
25263;SDS011;13211;51.796;5.808;2023-08-12T02:05:15;30.20;;;17.45;;
25263;SDS011;13211;51.796;5.808;2023-08-12T02:07:42;31.83;;;17.50;;
25263;SDS011;13211;51.796;5.808;2023-08-12T02:10:11;29.38;;;18.48;;
25263;SDS011;13211;51.796;5.808;2023-08-12T02:12:41;37.87;;;20.77;;
25263;SDS011;13211;51.796;5.808;2023-08-12T02:15:09;32.80;;;18.05;;
25263;SDS011;13211;51.796;5.808;2023-08-12T02:17:36;31.15;;;17.58;;
25263;SDS011;13211;51.796;5.808;2023-08-12T02:20:06;32.20;;;17.70;;
25263;SDS011;13211;51.796;5.808;2023-08-12T02:22:34;42.00;;;18.52;;
25263;SDS011;13211;51.796;5.808;2023-08-12T02:25:04;32.47;;;20.38;;
25263;SDS011;13211;51.796;5.808;2023-08-12T02:27:31;29.13;;;17.85;;
25263;SDS011;13211;51.796;5.808;2023-08-12T02:29:59;32.15;;;18.40;;
25263;SDS011;13211;51.796;5.808;2023-08-12T02:32:27;33.08;;;19.80;;
25263;SDS011;13211;51.796;5.808;2023-08-12T02:34:54;36.38;;;20.10;;
25263;SDS011;13211;51.796;5.808;2023-08-12T02:37:22;29.55;;;19.65;;
25263;SDS011;13211;51.796;5.808;2023-08-12T02:39:50;33.85;;;18.38;;
25263;SDS011;13211;51.796;5.808;2023-08-12T02:42:17;39.15;;;20.35;;
25263;SDS011;13211;51.796;5.808;2023-08-12T02:44:45;36.58;;;20.25;;
25263;SDS011;13211;51.796;5.808;2023-08-12T02:47:13;31.70;;;20.40;;
25263;SDS011;13211;51.796;5.808;2023-08-12T02:49:41;31.98;;;20.50;;
25263;SDS011;13211;51.796;5.808;2023-08-12T02:52:10;32.83;;;19.13;;
25263;SDS011;13211;51.796;5.808;2023-08-12T02:54:38;35.55;;;20.83;;
25263;SDS011;13211;51.796;5.808;2023-08-12T02:57:05;34.90;;;20.08;;
25263;SDS011;13211;51.796;5.808;2023-08-12T02:59:33;29.13;;;19.88;;
25263;SDS011;13211;51.796;5.808;2023-08-12T03:02:00;34.33;;;19.35;;
25263;SDS011;13211;51.796;5.808;2023-08-12T03:04:29;41.55;;;20.08;;
25263;SDS011;13211;51.796;5.808;2023-08-12T03:06:57;33.45;;;20.27;;
25263;SDS011;13211;51.796;5.808;2023-08-12T03:09:24;29.25;;;19.35;;
25263;SDS011;13211;51.796;5.808;2023-08-12T03:11:53;32.55;;;18.25;;
25263;SDS011;13211;51.796;5.808;2023-08-12T03:14:22;30.48;;;18.38;;
25263;SDS011;13211;51.796;5.808;2023-08-12T03:16:49;34.53;;;19.63;;
25263;SDS011;13211;51.796;5.808;2023-08-12T03:19:17;31.15;;;18.38;;
25263;SDS011;13211;51.796;5.808;2023-08-12T03:21:44;31.88;;;18.35;;
25263;SDS011;13211;51.796;5.808;2023-08-12T03:24:12;28.80;;;17.20;;
25263;SDS011;13211;51.796;5.808;2023-08-12T03:26:40;33.33;;;19.83;;
25263;SDS011;13211;51.796;5.808;2023-08-12T03:29:08;33.47;;;19.15;;
25263;SDS011;13211;51.796;5.808;2023-08-12T03:31:39;28.75;;;18.15;;
25263;SDS011;13211;51.796;5.808;2023-08-12T03:34:07;27.92;;;17.42;;
25263;SDS011;13211;51.796;5.808;2023-08-12T03:36:34;31.58;;;17.92;;
25263;SDS011;13211;51.796;5.808;2023-08-12T03:39:02;29.13;;;17.13;;
25263;SDS011;13211;51.796;5.808;2023-08-12T03:41:30;32.95;;;18.58;;
25263;SDS011;13211;51.796;5.808;2023-08-12T03:44:02;32.38;;;19.17;;
25263;SDS011;13211;51.796;5.808;2023-08-12T03:46:30;30.58;;;18.52;;
25263;SDS011;13211;51.796;5.808;2023-08-12T03:48:58;25.95;;;16.98;;
25263;SDS011;13211;51.796;5.808;2023-08-12T03:51:26;30.25;;;17.70;;
25263;SDS011;13211;51.796;5.808;2023-08-12T03:53:53;28.48;;;16.67;;
25263;SDS011;13211;51.796;5.808;2023-08-12T03:56:21;28.85;;;16.85;;
25263;SDS011;13211;51.796;5.808;2023-08-12T03:58:48;30.02;;;17.83;;
25263;SDS011;13211;51.796;5.808;2023-08-12T04:01:16;28.98;;;16.50;;
25263;SDS011;13211;51.796;5.808;2023-08-12T04:03:44;27.75;;;17.50;;
25263;SDS011;13211;51.796;5.808;2023-08-12T04:06:12;31.05;;;17.60;;
25263;SDS011;13211;51.796;5.808;2023-08-12T04:08:40;27.33;;;16.60;;
25263;SDS011;13211;51.796;5.808;2023-08-12T04:11:07;27.45;;;16.73;;
25263;SDS011;13211;51.796;5.808;2023-08-12T04:13:35;27.30;;;17.00;;
25263;SDS011;13211;51.796;5.808;2023-08-12T04:16:02;28.75;;;16.88;;
25263;SDS011;13211;51.796;5.808;2023-08-12T04:18:30;29.42;;;17.27;;
25263;SDS011;13211;51.796;5.808;2023-08-12T04:20:59;29.05;;;16.20;;
25263;SDS011;13211;51.796;5.808;2023-08-12T04:23:26;27.35;;;15.75;;
25263;SDS011;13211;51.796;5.808;2023-08-12T04:25:54;31.75;;;17.02;;
25263;SDS011;13211;51.796;5.808;2023-08-12T04:28:25;34.78;;;17.67;;
25263;SDS011;13211;51.796;5.808;2023-08-12T04:30:53;29.55;;;17.90;;
25263;SDS011;13211;51.796;5.808;2023-08-12T04:33:22;24.67;;;15.80;;
25263;SDS011;13211;51.796;5.808;2023-08-12T04:35:52;26.80;;;16.27;;
25263;SDS011;13211;51.796;5.808;2023-08-12T04:38:22;27.20;;;15.70;;
25263;SDS011;13211;51.796;5.808;2023-08-12T04:40:55;25.52;;;15.85;;
25263;SDS011;13211;51.796;5.808;2023-08-12T04:43:22;29.30;;;15.73;;
25263;SDS011;13211;51.796;5.808;2023-08-12T04:45:51;30.70;;;16.13;;
25263;SDS011;13211;51.796;5.808;2023-08-12T04:48:20;25.27;;;16.17;;
25263;SDS011;13211;51.796;5.808;2023-08-12T04:50:47;28.92;;;16.83;;
25263;SDS011;13211;51.796;5.808;2023-08-12T04:53:17;35.13;;;18.80;;
25263;SDS011;13211;51.796;5.808;2023-08-12T04:55:49;30.15;;;16.30;;
25263;SDS011;13211;51.796;5.808;2023-08-12T04:58:18;29.92;;;17.00;;
25263;SDS011;13211;51.796;5.808;2023-08-12T05:00:47;27.52;;;15.90;;
25263;SDS011;13211;51.796;5.808;2023-08-12T05:03:17;29.33;;;15.02;;
25263;SDS011;13211;51.796;5.808;2023-08-12T05:05:50;30.83;;;15.95;;
25263;SDS011;13211;51.796;5.808;2023-08-12T05:08:21;23.50;;;13.57;;
25263;SDS011;13211;51.796;5.808;2023-08-12T05:10:49;29.27;;;15.55;;
25263;SDS011;13211;51.796;5.808;2023-08-12T05:13:17;30.35;;;15.40;;
25263;SDS011;13211;51.796;5.808;2023-08-12T05:15:46;24.20;;;14.25;;
25263;SDS011;13211;51.796;5.808;2023-08-12T05:18:17;31.48;;;15.00;;
25263;SDS011;13211;51.796;5.808;2023-08-12T05:20:45;24.00;;;14.43;;
25263;SDS011;13211;51.796;5.808;2023-08-12T05:23:14;27.23;;;14.07;;
25263;SDS011;13211;51.796;5.808;2023-08-12T05:25:42;26.70;;;14.07;;
25263;SDS011;13211;51.796;5.808;2023-08-12T05:28:09;25.05;;;14.10;;
25263;SDS011;13211;51.796;5.808;2023-08-12T05:30:37;24.85;;;13.32;;
25263;SDS011;13211;51.796;5.808;2023-08-12T05:33:05;22.08;;;12.85;;
25263;SDS011;13211;51.796;5.808;2023-08-12T05:35:33;28.65;;;12.63;;
25263;SDS011;13211;51.796;5.808;2023-08-12T05:38:01;23.30;;;12.35;;
25263;SDS011;13211;51.796;5.808;2023-08-12T05:40:29;25.17;;;11.80;;
25263;SDS011;13211;51.796;5.808;2023-08-12T05:42:57;21.95;;;11.77;;
25263;SDS011;13211;51.796;5.808;2023-08-12T05:45:24;21.15;;;11.35;;
25263;SDS011;13211;51.796;5.808;2023-08-12T05:47:52;25.02;;;11.77;;
25263;SDS011;13211;51.796;5.808;2023-08-12T05:50:22;23.88;;;11.80;;
25263;SDS011;13211;51.796;5.808;2023-08-12T05:52:49;22.23;;;11.60;;
25263;SDS011;13211;51.796;5.808;2023-08-12T05:55:17;19.10;;;10.80;;
25263;SDS011;13211;51.796;5.808;2023-08-12T05:57:45;19.02;;;10.18;;
25263;SDS011;13211;51.796;5.808;2023-08-12T06:00:16;21.13;;;10.45;;
25263;SDS011;13211;51.796;5.808;2023-08-12T06:02:46;21.23;;;10.75;;
25263;SDS011;13211;51.796;5.808;2023-08-12T06:05:17;23.17;;;11.18;;
25263;SDS011;13211;51.796;5.808;2023-08-12T06:07:45;20.13;;;10.60;;
25263;SDS011;13211;51.796;5.808;2023-08-12T06:10:12;18.98;;;11.07;;
25263;SDS011;13211;51.796;5.808;2023-08-12T06:12:40;18.95;;;10.80;;
25263;SDS011;13211;51.796;5.808;2023-08-12T06:15:08;19.42;;;11.63;;
25263;SDS011;13211;51.796;5.808;2023-08-12T06:17:35;18.50;;;11.85;;
25263;SDS011;13211;51.796;5.808;2023-08-12T06:20:03;19.85;;;10.90;;
25263;SDS011;13211;51.796;5.808;2023-08-12T06:22:31;21.27;;;10.57;;
25263;SDS011;13211;51.796;5.808;2023-08-12T06:24:58;16.85;;;10.07;;
25263;SDS011;13211;51.796;5.808;2023-08-12T06:27:26;17.10;;;10.68;;
25263;SDS011;13211;51.796;5.808;2023-08-12T06:29:55;16.45;;;9.90;;
25263;SDS011;13211;51.796;5.808;2023-08-12T06:32:23;16.25;;;9.30;;
25263;SDS011;13211;51.796;5.808;2023-08-12T06:34:50;17.40;;;10.23;;
25263;SDS011;13211;51.796;5.808;2023-08-12T06:37:18;16.70;;;9.68;;
25263;SDS011;13211;51.796;5.808;2023-08-12T06:39:46;14.07;;;9.15;;
25263;SDS011;13211;51.796;5.808;2023-08-12T06:42:13;17.63;;;9.23;;
25263;SDS011;13211;51.796;5.808;2023-08-12T06:44:44;20.13;;;10.27;;
25263;SDS011;13211;51.796;5.808;2023-08-12T06:47:12;17.88;;;9.52;;
25263;SDS011;13211;51.796;5.808;2023-08-12T06:49:40;17.02;;;9.70;;
25263;SDS011;13211;51.796;5.808;2023-08-12T06:52:07;14.23;;;8.80;;
25263;SDS011;13211;51.796;5.808;2023-08-12T06:54:36;13.73;;;9.25;;
25263;SDS011;13211;51.796;5.808;2023-08-12T06:57:03;14.95;;;8.65;;
25263;SDS011;13211;51.796;5.808;2023-08-12T06:59:31;16.30;;;9.98;;
25263;SDS011;13211;51.796;5.808;2023-08-12T07:01:58;16.65;;;8.98;;
25263;SDS011;13211;51.796;5.808;2023-08-12T07:04:26;16.38;;;8.95;;
25263;SDS011;13211;51.796;5.808;2023-08-12T07:06:54;13.10;;;8.13;;
25263;SDS011;13211;51.796;5.808;2023-08-12T07:09:22;12.88;;;8.32;;
25263;SDS011;13211;51.796;5.808;2023-08-12T07:11:49;15.10;;;8.15;;
25263;SDS011;13211;51.796;5.808;2023-08-12T07:14:17;15.48;;;9.48;;
25263;SDS011;13211;51.796;5.808;2023-08-12T07:16:45;16.60;;;8.63;;
25263;SDS011;13211;51.796;5.808;2023-08-12T07:19:12;14.25;;;8.43;;
25263;SDS011;13211;51.796;5.808;2023-08-12T07:21:42;11.52;;;7.65;;
25263;SDS011;13211;51.796;5.808;2023-08-12T07:24:10;13.75;;;8.45;;
25263;SDS011;13211;51.796;5.808;2023-08-12T07:26:37;12.70;;;7.57;;
25263;SDS011;13211;51.796;5.808;2023-08-12T07:29:05;11.40;;;6.78;;
25263;SDS011;13211;51.796;5.808;2023-08-12T07:31:32;8.23;;;5.97;;
25263;SDS011;13211;51.796;5.808;2023-08-12T07:34:00;8.85;;;5.63;;
25263;SDS011;13211;51.796;5.808;2023-08-12T07:36:28;8.60;;;5.07;;
25263;SDS011;13211;51.796;5.808;2023-08-12T07:38:55;6.90;;;4.63;;
25263;SDS011;13211;51.796;5.808;2023-08-12T07:41:22;7.20;;;4.03;;
25263;SDS011;13211;51.796;5.808;2023-08-12T07:43:53;11.32;;;4.47;;
25263;SDS011;13211;51.796;5.808;2023-08-12T07:46:21;7.47;;;4.53;;
25263;SDS011;13211;51.796;5.808;2023-08-12T07:48:49;9.23;;;5.40;;
25263;SDS011;13211;51.796;5.808;2023-08-12T07:51:17;5.25;;;4.05;;
25263;SDS011;13211;51.796;5.808;2023-08-12T07:53:44;6.18;;;4.03;;
25263;SDS011;13211;51.796;5.808;2023-08-12T07:56:12;6.10;;;4.00;;
25263;SDS011;13211;51.796;5.808;2023-08-12T07:58:39;4.30;;;3.60;;
25263;SDS011;13211;51.796;5.808;2023-08-12T08:01:07;10.07;;;4.28;;
25263;SDS011;13211;51.796;5.808;2023-08-12T08:03:36;7.82;;;4.40;;
25263;SDS011;13211;51.796;5.808;2023-08-12T08:06:03;5.97;;;4.40;;
25263;SDS011;13211;51.796;5.808;2023-08-12T08:08:31;4.72;;;4.15;;
25263;SDS011;13211;51.796;5.808;2023-08-12T08:10:59;8.20;;;5.05;;
25263;SDS011;13211;51.796;5.808;2023-08-12T08:13:26;7.82;;;4.93;;
25263;SDS011;13211;51.796;5.808;2023-08-12T08:15:54;6.60;;;5.07;;
25263;SDS011;13211;51.796;5.808;2023-08-12T08:18:22;7.68;;;5.10;;
25263;SDS011;13211;51.796;5.808;2023-08-12T08:20:50;6.82;;;5.07;;
25263;SDS011;13211;51.796;5.808;2023-08-12T08:23:18;6.43;;;4.85;;
25263;SDS011;13211;51.796;5.808;2023-08-12T08:25:45;6.82;;;5.15;;
25263;SDS011;13211;51.796;5.808;2023-08-12T08:28:13;10.65;;;6.10;;
25263;SDS011;13211;51.796;5.808;2023-08-12T08:30:41;6.95;;;5.70;;
25263;SDS011;13211;51.796;5.808;2023-08-12T08:33:09;7.75;;;5.60;;
25263;SDS011;13211;51.796;5.808;2023-08-12T08:35:36;8.88;;;5.22;;
25263;SDS011;13211;51.796;5.808;2023-08-12T08:38:04;6.57;;;5.40;;
25263;SDS011;13211;51.796;5.808;2023-08-12T08:40:32;8.82;;;5.60;;
25263;SDS011;13211;51.796;5.808;2023-08-12T08:43:01;6.20;;;5.30;;
25263;SDS011;13211;51.796;5.808;2023-08-12T08:45:30;6.43;;;5.30;;
25263;SDS011;13211;51.796;5.808;2023-08-12T08:47:59;6.75;;;5.97;;
25263;SDS011;13211;51.796;5.808;2023-08-12T08:50:28;8.40;;;5.15;;
25263;SDS011;13211;51.796;5.808;2023-08-12T08:52:56;6.47;;;5.78;;
25263;SDS011;13211;51.796;5.808;2023-08-12T08:55:24;6.80;;;5.60;;
25263;SDS011;13211;51.796;5.808;2023-08-12T08:57:52;7.88;;;5.65;;
25263;SDS011;13211;51.796;5.808;2023-08-12T09:00:27;8.98;;;5.72;;
25263;SDS011;13211;51.796;5.808;2023-08-12T09:02:57;10.75;;;6.68;;
25263;SDS011;13211;51.796;5.808;2023-08-12T09:05:25;6.35;;;5.30;;
25263;SDS011;13211;51.796;5.808;2023-08-12T09:07:53;6.05;;;5.45;;
25263;SDS011;13211;51.796;5.808;2023-08-12T09:10:21;6.60;;;5.53;;
25263;SDS011;13211;51.796;5.808;2023-08-12T09:12:55;7.07;;;5.70;;
25263;SDS011;13211;51.796;5.808;2023-08-12T09:15:23;7.30;;;5.82;;
25263;SDS011;13211;51.796;5.808;2023-08-12T09:17:51;6.40;;;5.03;;
25263;SDS011;13211;51.796;5.808;2023-08-12T09:20:19;5.55;;;5.00;;
25263;SDS011;13211;51.796;5.808;2023-08-12T09:22:56;5.57;;;4.63;;
25263;SDS011;13211;51.796;5.808;2023-08-12T09:25:25;4.30;;;3.90;;
25263;SDS011;13211;51.796;5.808;2023-08-12T09:27:53;4.72;;;3.38;;
25263;SDS011;13211;51.796;5.808;2023-08-12T09:30:25;5.00;;;3.42;;
25263;SDS011;13211;51.796;5.808;2023-08-12T09:32:59;6.03;;;3.42;;
25263;SDS011;13211;51.796;5.808;2023-08-12T09:35:32;2.90;;;2.50;;
25263;SDS011;13211;51.796;5.808;2023-08-12T09:38:02;2.95;;;2.47;;
25263;SDS011;13211;51.796;5.808;2023-08-12T09:40:31;3.58;;;2.25;;
25263;SDS011;13211;51.796;5.808;2023-08-12T09:42:59;3.83;;;2.20;;
25263;SDS011;13211;51.796;5.808;2023-08-12T09:45:27;3.08;;;2.35;;
25263;SDS011;13211;51.796;5.808;2023-08-12T09:47:54;2.83;;;2.00;;
25263;SDS011;13211;51.796;5.808;2023-08-12T09:50:22;2.55;;;1.80;;
25263;SDS011;13211;51.796;5.808;2023-08-12T09:52:52;3.47;;;2.05;;
25263;SDS011;13211;51.796;5.808;2023-08-12T09:55:21;3.95;;;1.50;;
25263;SDS011;13211;51.796;5.808;2023-08-12T09:57:54;2.05;;;1.60;;
25263;SDS011;13211;51.796;5.808;2023-08-12T10:00:22;4.82;;;1.60;;
25263;SDS011;13211;51.796;5.808;2023-08-12T10:02:51;2.53;;;2.05;;
25263;SDS011;13211;51.796;5.808;2023-08-12T10:05:19;2.28;;;2.05;;
25263;SDS011;13211;51.796;5.808;2023-08-12T10:07:49;2.30;;;2.03;;
25263;SDS011;13211;51.796;5.808;2023-08-12T10:10:16;3.78;;;2.13;;
25263;SDS011;13211;51.796;5.808;2023-08-12T10:12:45;2.30;;;2.10;;
25263;SDS011;13211;51.796;5.808;2023-08-12T10:15:13;2.25;;;2.00;;
25263;SDS011;13211;51.796;5.808;2023-08-12T10:17:41;6.45;;;2.10;;
25263;SDS011;13211;51.796;5.808;2023-08-12T10:20:13;2.08;;;1.70;;
25263;SDS011;13211;51.796;5.808;2023-08-12T10:22:41;17.63;;;11.23;;
25263;SDS011;13211;51.796;5.808;2023-08-12T10:25:10;2.25;;;1.50;;
25263;SDS011;13211;51.796;5.808;2023-08-12T10:27:41;1.98;;;1.40;;
25263;SDS011;13211;51.796;5.808;2023-08-12T10:30:09;2.78;;;1.40;;
25263;SDS011;13211;51.796;5.808;2023-08-12T10:32:37;4.47;;;1.73;;
25263;SDS011;13211;51.796;5.808;2023-08-12T10:35:08;4.50;;;2.03;;
25263;SDS011;13211;51.796;5.808;2023-08-12T10:37:37;3.08;;;2.00;;
25263;SDS011;13211;51.796;5.808;2023-08-12T10:40:04;4.30;;;2.35;;
25263;SDS011;13211;51.796;5.808;2023-08-12T10:42:40;4.78;;;3.03;;
25263;SDS011;13211;51.796;5.808;2023-08-12T10:45:11;6.55;;;2.60;;
25263;SDS011;13211;51.796;5.808;2023-08-12T10:47:40;4.78;;;2.53;;
25263;SDS011;13211;51.796;5.808;2023-08-12T10:50:21;3.78;;;2.88;;
25263;SDS011;13211;51.796;5.808;2023-08-12T10:52:52;8.55;;;2.75;;
25263;SDS011;13211;51.796;5.808;2023-08-12T10:55:23;5.40;;;2.17;;
25263;SDS011;13211;51.796;5.808;2023-08-12T10:57:52;7.22;;;2.50;;
25263;SDS011;13211;51.796;5.808;2023-08-12T11:00:23;6.68;;;2.75;;
25263;SDS011;13211;51.796;5.808;2023-08-12T11:02:52;3.45;;;2.05;;
25263;SDS011;13211;51.796;5.808;2023-08-12T11:05:20;7.03;;;2.40;;
25263;SDS011;13211;51.796;5.808;2023-08-12T11:07:58;4.95;;;2.08;;
25263;SDS011;13211;51.796;5.808;2023-08-12T11:10:30;6.22;;;2.55;;
25263;SDS011;13211;51.796;5.808;2023-08-12T11:13:00;5.68;;;2.50;;
25263;SDS011;13211;51.796;5.808;2023-08-12T11:18:06;7.60;;;2.60;;
25263;SDS011;13211;51.796;5.808;2023-08-12T11:20:34;5.70;;;2.65;;
25263;SDS011;13211;51.796;5.808;2023-08-12T11:23:03;4.93;;;1.95;;
25263;SDS011;13211;51.796;5.808;2023-08-12T11:25:31;6.50;;;2.38;;
25263;SDS011;13211;51.796;5.808;2023-08-12T11:28:00;5.90;;;1.98;;
25263;SDS011;13211;51.796;5.808;2023-08-12T11:30:27;5.25;;;1.88;;
25263;SDS011;13211;51.796;5.808;2023-08-12T11:32:59;6.13;;;1.55;;
25263;SDS011;13211;51.796;5.808;2023-08-12T11:35:27;5.32;;;2.20;;
25263;SDS011;13211;51.796;5.808;2023-08-12T11:37:58;4.47;;;1.73;;
25263;SDS011;13211;51.796;5.808;2023-08-12T11:40:26;5.18;;;1.67;;
25263;SDS011;13211;51.796;5.808;2023-08-12T11:42:55;6.43;;;1.42;;
25263;SDS011;13211;51.796;5.808;2023-08-12T11:45:24;8.30;;;1.20;;
25263;SDS011;13211;51.796;5.808;2023-08-12T11:47:52;6.03;;;1.27;;
25263;SDS011;13211;51.796;5.808;2023-08-12T11:50:25;4.85;;;1.38;;
25263;SDS011;13211;51.796;5.808;2023-08-12T11:52:54;7.50;;;1.50;;
25263;SDS011;13211;51.796;5.808;2023-08-12T11:55:22;14.30;;;2.25;;
25263;SDS011;13211;51.796;5.808;2023-08-12T11:57:52;6.70;;;1.40;;
25263;SDS011;13211;51.796;5.808;2023-08-12T12:00:22;7.90;;;1.23;;
25263;SDS011;13211;51.796;5.808;2023-08-12T12:02:55;12.43;;;1.52;;
25263;SDS011;13211;51.796;5.808;2023-08-12T12:05:27;9.13;;;1.42;;
25263;SDS011;13211;51.796;5.808;2023-08-12T12:07:59;13.63;;;1.60;;
25263;SDS011;13211;51.796;5.808;2023-08-12T12:10:28;9.55;;;1.40;;
25263;SDS011;13211;51.796;5.808;2023-08-12T12:13:00;9.00;;;1.92;;
25263;SDS011;13211;51.796;5.808;2023-08-12T12:15:28;10.98;;;1.75;;
25263;SDS011;13211;51.796;5.808;2023-08-12T12:17:56;7.35;;;1.45;;
25263;SDS011;13211;51.796;5.808;2023-08-12T12:20:24;5.30;;;1.17;;
25263;SDS011;13211;51.796;5.808;2023-08-12T12:22:54;6.93;;;1.55;;
25263;SDS011;13211;51.796;5.808;2023-08-12T12:25:22;6.25;;;1.45;;
25263;SDS011;13211;51.796;5.808;2023-08-12T12:27:49;6.55;;;1.60;;
25263;SDS011;13211;51.796;5.808;2023-08-12T12:30:17;9.90;;;1.88;;
25263;SDS011;13211;51.796;5.808;2023-08-12T12:32:45;8.18;;;1.02;;
25263;SDS011;13211;51.796;5.808;2023-08-12T12:35:13;8.00;;;1.38;;
25263;SDS011;13211;51.796;5.808;2023-08-12T12:37:41;9.35;;;1.55;;
25263;SDS011;13211;51.796;5.808;2023-08-12T12:40:09;6.50;;;1.70;;
25263;SDS011;13211;51.796;5.808;2023-08-12T12:42:37;5.82;;;1.33;;
25263;SDS011;13211;51.796;5.808;2023-08-12T12:45:05;8.68;;;1.77;;
25263;SDS011;13211;51.796;5.808;2023-08-12T12:47:33;13.32;;;1.70;;
25263;SDS011;13211;51.796;5.808;2023-08-12T12:50:00;10.40;;;1.80;;
25263;SDS011;13211;51.796;5.808;2023-08-12T12:52:28;9.05;;;1.80;;
25263;SDS011;13211;51.796;5.808;2023-08-12T12:54:56;9.45;;;1.90;;
25263;SDS011;13211;51.796;5.808;2023-08-12T12:57:24;9.98;;;1.50;;
25263;SDS011;13211;51.796;5.808;2023-08-12T12:59:52;9.27;;;1.60;;
25263;SDS011;13211;51.796;5.808;2023-08-12T13:02:19;8.40;;;1.67;;
25263;SDS011;13211;51.796;5.808;2023-08-12T13:04:47;8.43;;;1.95;;
25263;SDS011;13211;51.796;5.808;2023-08-12T13:07:16;11.00;;;1.70;;
25263;SDS011;13211;51.796;5.808;2023-08-12T13:09:44;7.97;;;1.80;;
25263;SDS011;13211;51.796;5.808;2023-08-12T13:12:11;8.45;;;1.50;;
25263;SDS011;13211;51.796;5.808;2023-08-12T13:14:39;7.57;;;1.63;;
25263;SDS011;13211;51.796;5.808;2023-08-12T13:17:07;7.45;;;1.60;;
25263;SDS011;13211;51.796;5.808;2023-08-12T13:19:34;11.90;;;2.70;;
25263;SDS011;13211;51.796;5.808;2023-08-12T13:22:03;5.00;;;1.23;;
25263;SDS011;13211;51.796;5.808;2023-08-12T13:24:31;7.13;;;1.48;;
25263;SDS011;13211;51.796;5.808;2023-08-12T13:26:59;10.18;;;1.88;;
25263;SDS011;13211;51.796;5.808;2023-08-12T13:29:27;5.25;;;1.15;;
25263;SDS011;13211;51.796;5.808;2023-08-12T13:32:04;8.05;;;1.40;;
25263;SDS011;13211;51.796;5.808;2023-08-12T13:34:32;9.18;;;1.73;;
25263;SDS011;13211;51.796;5.808;2023-08-12T13:37:00;11.40;;;1.55;;
25263;SDS011;13211;51.796;5.808;2023-08-12T13:39:27;11.75;;;1.70;;
25263;SDS011;13211;51.796;5.808;2023-08-12T13:41:55;10.00;;;1.75;;
25263;SDS011;13211;51.796;5.808;2023-08-12T13:44:23;11.13;;;1.73;;
25263;SDS011;13211;51.796;5.808;2023-08-12T13:46:50;9.43;;;2.08;;
25263;SDS011;13211;51.796;5.808;2023-08-12T13:49:18;9.85;;;1.50;;
25263;SDS011;13211;51.796;5.808;2023-08-12T13:51:45;9.13;;;1.45;;
25263;SDS011;13211;51.796;5.808;2023-08-12T13:54:13;11.05;;;1.75;;
25263;SDS011;13211;51.796;5.808;2023-08-12T13:56:41;8.98;;;1.75;;
25263;SDS011;13211;51.796;5.808;2023-08-12T13:59:09;11.18;;;2.00;;
25263;SDS011;13211;51.796;5.808;2023-08-12T14:01:36;10.90;;;2.35;;
25263;SDS011;13211;51.796;5.808;2023-08-12T14:04:07;7.43;;;1.52;;
25263;SDS011;13211;51.796;5.808;2023-08-12T14:06:34;12.45;;;1.90;;
25263;SDS011;13211;51.796;5.808;2023-08-12T14:09:02;11.45;;;1.67;;
25263;SDS011;13211;51.796;5.808;2023-08-12T14:11:30;8.48;;;1.73;;
25263;SDS011;13211;51.796;5.808;2023-08-12T14:13:57;10.00;;;2.05;;
25263;SDS011;13211;51.796;5.808;2023-08-12T14:16:25;7.88;;;2.10;;
25263;SDS011;13211;51.796;5.808;2023-08-12T14:18:52;9.82;;;1.80;;
25263;SDS011;13211;51.796;5.808;2023-08-12T14:21:20;7.93;;;1.67;;
25263;SDS011;13211;51.796;5.808;2023-08-12T14:23:47;11.32;;;2.20;;
25263;SDS011;13211;51.796;5.808;2023-08-12T14:26:15;5.05;;;1.30;;
25263;SDS011;13211;51.796;5.808;2023-08-12T14:28:42;9.68;;;1.42;;
25263;SDS011;13211;51.796;5.808;2023-08-12T14:31:10;6.80;;;1.55;;
25263;SDS011;13211;51.796;5.808;2023-08-12T14:33:38;7.47;;;1.30;;
25263;SDS011;13211;51.796;5.808;2023-08-12T14:36:06;5.70;;;1.58;;
25263;SDS011;13211;51.796;5.808;2023-08-12T14:38:34;15.38;;;2.55;;
25263;SDS011;13211;51.796;5.808;2023-08-12T14:41:02;8.20;;;1.80;;
25263;SDS011;13211;51.796;5.808;2023-08-12T14:43:29;10.82;;;1.63;;
25263;SDS011;13211;51.796;5.808;2023-08-12T14:45:57;10.48;;;1.90;;